tititudorancea.com
Station Historical Data
Daily Summary for February 9, 2018 Units:  Metric    English   Both
« Previous Day
Next Day »
Daily Weekly Monthly Yearly Custom
  High: Low: Average:
Temperature: -17.8 °C 16.9 °C 24 °C
Dew Point: -17.8 °C 12.8 °C 14.3 °C
Humidity: Humidity % 32 % 58 %
Wind Speed: 0 km/h 0 km/h 6.4 km/h
Wind Gust: 0 km/h - -
Wind:- - South
Pressure: 0 hPa 1008.4 hPa -
Precipitation: 0 mm    
Historical Graphs
 
 
Ararat weather Find more about Weather in Ararat, AU


 



 


Tabular Data for February 9, 2018
Time Temperature Dew Point Pressure Wind Wind Speed Wind Gust Humidity Rainfall Rate (Hourly)
-17.8 °C -17.8 °C 0 hPa Calm     Humidity % 0 mm
00:04 19.7 °C 14.3 °C 1013.4 hPa South 6.8 km/h 9.3 km/h 71 % 0 mm
00:09 19.8 °C 14.4 °C 1013.4 hPa South 6.8 km/h 11.1 km/h 71 % 0 mm
00:14 19.8 °C 14.2 °C 1013.1 hPa South 6.8 km/h 9.3 km/h 70 % 0 mm
00:19 19.9 °C 14.3 °C 1013.1 hPa South 5.5 km/h 7.4 km/h 70 % 0 mm
00:24 19.9 °C 14.1 °C 1013.1 hPa South 11.3 km/h 16.7 km/h 69 % 0 mm
00:29 20.1 °C 14 °C 1013.1 hPa South 6.4 km/h 11.1 km/h 68 % 0 mm
00:34 20.2 °C 14.1 °C 1013.1 hPa South 8.4 km/h 11.1 km/h 68 % 0 mm
00:39 20.2 °C 13.9 °C 1013.1 hPa South 2.6 km/h 5.6 km/h 67 % 0 mm
00:44 20.2 °C 13.9 °C 1013.1 hPa South 1.4 km/h 3.7 km/h 67 % 0 mm
00:49 20.2 °C 13.9 °C 1013.1 hPa South 2.4 km/h 3.7 km/h 67 % 0 mm
00:54 20.3 °C 13.7 °C 1012.8 hPa South 1.9 km/h 3.7 km/h 66 % 0 mm
00:59 20.3 °C 13.8 °C 1012.8 hPa South 1 km/h 1.9 km/h 66 % 0 mm
01:04 20.3 °C 13.8 °C 1012.4 hPa South 4 km/h 5.6 km/h 66 % 0 mm
01:09 20.4 °C 13.6 °C 1012.4 hPa South 3.2 km/h 5.6 km/h 65 % 0 mm
01:14 20.4 °C 13.6 °C 1012.4 hPa South 4 km/h 7.4 km/h 65 % 0 mm
01:19 20.4 °C 13.7 °C 1012.4 hPa South 4 km/h 6.4 km/h 65 % 0 mm
01:24 20.4 °C 13.7 °C 1012.4 hPa Calm     65 % 0 mm
01:29 20.3 °C 13.5 °C 1012.4 hPa South 1.6 km/h 9.3 km/h 65 % 0 mm
01:34 20.3 °C 13.3 °C 1012.4 hPa South 1.8 km/h 5.6 km/h 64 % 0 mm
01:39 20.4 °C 13.3 °C 1012.4 hPa South 4.3 km/h 7.4 km/h 64 % 0 mm
01:44 20.4 °C 13.3 °C 1012.1 hPa South 2.1 km/h 5.6 km/h 64 % 0 mm
01:49 20.3 °C 13.3 °C 1012.1 hPa South 2.3 km/h 3.2 km/h 64 % 0 mm
01:54 20.3 °C 13.2 °C 1012.1 hPa South 1.8 km/h 3.7 km/h 64 % 0 mm
01:59 20.2 °C 13.2 °C 1012.1 hPa Calm     64 % 0 mm
02:04 20.2 °C 13.2 °C 1012.1 hPa Calm     64 % 0 mm
02:09 20.2 °C 13.2 °C 1012.1 hPa South 0.2 km/h 3.7 km/h 64 % 0 mm
02:14 20.2 °C 13.1 °C 1012.1 hPa Calm     64 % 0 mm
02:19 20.1 °C 13.1 °C 1012.1 hPa South 5.1 km/h 7.4 km/h 64 % 0 mm
02:24 20.1 °C 13.1 °C 1012.1 hPa South 5 km/h 6.4 km/h 64 % 0 mm
02:29 20.2 °C 13.2 °C 1011.7 hPa South 1.3 km/h 1.9 km/h 64 % 0 mm
02:34 20.2 °C 13.2 °C 1011.7 hPa South 3.2 km/h 5.6 km/h 64 % 0 mm
02:39 20.2 °C 13.2 °C 1011.4 hPa Calm   1.9 km/h 64 % 0 mm
02:44 20.2 °C 13.2 °C 1011.4 hPa South 0.2 km/h 1.9 km/h 64 % 0 mm
02:49 20 °C 13.2 °C 1011.4 hPa South 4 km/h 7.4 km/h 65 % 0 mm
02:54 19.7 °C 13.4 °C 1011.4 hPa South 1.3 km/h 3.7 km/h 67 % 0 mm
02:59 19.4 °C 13.4 °C 1011.4 hPa Calm     68 % 0 mm
03:04 19.3 °C 13.5 °C 1011.1 hPa Calm     69 % 0 mm
03:09 19.2 °C 13.6 °C 1011.1 hPa Calm     70 % 0 mm
03:14 19.1 °C 13.5 °C 1011.1 hPa Calm     70 % 0 mm
03:19 19 °C 13.6 °C 1010.7 hPa Calm   1.9 km/h 71 % 0 mm
03:24 18.9 °C 13.5 °C 1010.7 hPa Calm     71 % 0 mm
03:29 18.8 °C 13.6 °C 1010.7 hPa Calm     72 % 0 mm
03:34 18.7 °C 13.5 °C 1010.7 hPa Calm     72 % 0 mm
03:39 18.6 °C 13.7 °C 1010.7 hPa Calm     73 % 0 mm
03:44 18.5 °C 13.6 °C 1010.7 hPa Calm     73 % 0 mm
03:50 18.4 °C 13.7 °C 1010.7 hPa Calm     74 % 0 mm
03:55 18.3 °C 13.6 °C 1010.7 hPa Calm     74 % 0 mm
04:00 18.2 °C 13.7 °C 1010.7 hPa Calm     75 % 0 mm
04:05 18.2 °C 13.7 °C 1010.7 hPa Calm     75 % 0 mm
04:10 18.2 °C 13.7 °C 1010.7 hPa Calm     75 % 0 mm
04:15 18.1 °C 13.8 °C 1010.4 hPa Calm     76 % 0 mm
04:20 18.1 °C 13.6 °C 1010.7 hPa Calm     75 % 0 mm
04:25 18.1 °C 13.8 °C 1010.7 hPa Calm     76 % 0 mm
04:30 18.1 °C 13.8 °C 1010.4 hPa Calm     76 % 0 mm
04:35 17.9 °C 13.7 °C 1010.4 hPa Calm     76 % 0 mm
04:40 17.9 °C 13.6 °C 1010.4 hPa Calm     76 % 0 mm
04:45 17.7 °C 13.6 °C 1010.4 hPa Calm     77 % 0 mm
04:50 17.6 °C 13.6 °C 1010.4 hPa Calm     77 % 0 mm
04:55 17.5 °C 13.6 °C 1010.7 hPa Calm     78 % 0 mm
05:00 17.3 °C 13.4 °C 1010.7 hPa Calm     78 % 0 mm
05:05 17.2 °C 13.3 °C 1010.4 hPa Calm     78 % 0 mm
05:10 17.1 °C 13.4 °C 1010.7 hPa Calm     79 % 0 mm
05:15 17 °C 13.5 °C 1010.4 hPa Calm     80 % 0 mm
05:20 16.9 °C 13.4 °C 1010.4 hPa Calm     80 % 0 mm
05:25 16.9 °C 13.4 °C 1010.4 hPa Calm     80 % 0 mm
05:30 16.9 °C 13.4 °C 1010.4 hPa South 4.7 km/h 5.6 km/h 80 % 0 mm
05:35 16.9 °C 13.4 °C 1010.4 hPa South 4.2 km/h 6.4 km/h 80 % 0 mm
05:40 17.1 °C 13.4 °C 1010.4 hPa South 4.3 km/h 8 km/h 79 % 0 mm
05:45 17.3 °C 13.4 °C 1010.7 hPa South 0.3 km/h 1.9 km/h 78 % 0 mm
05:50 17.3 °C 13.4 °C 1010.7 hPa South 0.6 km/h 3.7 km/h 78 % 0 mm
05:55 17.4 °C 13.6 °C 1010.7 hPa North 1.3 km/h 3.7 km/h 78 % 0 mm
06:00 17.5 °C 13.4 °C 1011.1 hPa North 4.3 km/h 7.4 km/h 77 % 0 mm
06:05 17.6 °C 13.5 °C 1011.1 hPa North 6 km/h 6.4 km/h 77 % 0 mm
06:10 17.7 °C 13.4 °C 1011.1 hPa South 9.5 km/h 13 km/h 76 % 0 mm
06:15 17.9 °C 13.4 °C 1011.1 hPa South 11.4 km/h 14.8 km/h 75 % 0 mm
06:20 18.2 °C 13.4 °C 1011.4 hPa SSW 11.3 km/h 16.7 km/h 74 % 0 mm
06:25 18.2 °C 13.4 °C 1011.4 hPa SSW 10 km/h 13 km/h 74 % 0 mm
06:30 18.1 °C 13.6 °C 1011.4 hPa SSW 9.5 km/h 16.7 km/h 75 % 0 mm
06:35 18.1 °C 13.6 °C 1011.7 hPa SSW 8.9 km/h 11.1 km/h 75 % 0 mm
06:40 18 °C 13.5 °C 1011.7 hPa SSW 11.6 km/h 16.7 km/h 75 % 0 mm
06:45 17.9 °C 13.7 °C 1011.7 hPa North 7.7 km/h 11.1 km/h 76 % 0 mm
06:50 17.9 °C 13.6 °C 1011.7 hPa SSW 7.1 km/h 13 km/h 76 % 0 mm
06:55 17.9 °C 13.6 °C 1012.1 hPa SSW 10.9 km/h 14.8 km/h 76 % 0 mm
07:00 17.9 °C 13.8 °C 1012.1 hPa SSW 10.8 km/h 14.8 km/h 77 % 0 mm
07:05 18 °C 13.9 °C 1012.1 hPa North 9.7 km/h 13 km/h 77 % 0 mm
07:10 17.9 °C 13.8 °C 1012.1 hPa North 9.8 km/h 13 km/h 77 % 0 mm
07:15 17.8 °C 13.9 °C 1012.1 hPa SSW 8.4 km/h 11.1 km/h 78 % 0 mm
07:20 17.8 °C 13.9 °C 1012.1 hPa South 8.5 km/h 11.1 km/h 78 % 0 mm
07:25 17.8 °C 14.2 °C 1012.1 hPa South 12.6 km/h 18.5 km/h 79 % 0 mm
07:49 17.7 °C 14.4 °C 1012.4 hPa South 5.6 km/h 14.5 km/h 81 % 0 mm
07:54 17.7 °C 14.4 °C 1012.4 hPa South 6.8 km/h 9.7 km/h 81 % 0 mm
07:59 17.8 °C 14.5 °C 1012.8 hPa SSW 6 km/h 14.8 km/h 81 % 0 mm
08:04 17.9 °C 14.6 °C 1012.8 hPa SSW 8.7 km/h 8.7 km/h 81 % 0 mm
08:09 18.1 °C 14.9 °C 1013.1 hPa North 8.5 km/h 14.8 km/h 82 % 0 mm
08:14 18.1 °C 15 °C 1013.1 hPa South 9.3 km/h 16.7 km/h 82 % 0 mm
08:24 18.2 °C 15.3 °C 1013.1 hPa South 16.7 km/h 16.7 km/h 83 % 0 mm
08:29 18.3 °C 15.3 °C 1013.1 hPa South 9.8 km/h 12.9 km/h 83 % 0 mm
08:34 18.3 °C 15.6 °C 1013.1 hPa North 5.1 km/h 7.4 km/h 84 % 0 mm
08:39 18.4 °C 15.7 °C 1013.4 hPa South 5.5 km/h 8 km/h 84 % 0 mm
08:44 18.5 °C 15.7 °C 1013.4 hPa North 14.8 km/h 14.8 km/h 84 % 0 mm
08:49 18.6 °C 15.8 °C 1013.4 hPa South 7.1 km/h 13 km/h 84 % 0 mm
08:54 18.6 °C 15.8 °C 1013.4 hPa South 5.8 km/h 11.1 km/h 84 % 0 mm
08:59 18.7 °C 15.9 °C 1013.8 hPa SSW 12.2 km/h 16.7 km/h 84 % 0 mm
09:04 18.7 °C 15.9 °C 1013.8 hPa SSW 6.3 km/h 14.8 km/h 84 % 0 mm
09:09 18.8 °C 16.2 °C 1013.8 hPa SSW 6.4 km/h 13 km/h 85 % 0 mm
09:14 18.9 °C 16.3 °C 1013.8 hPa SSW 12.9 km/h 18.5 km/h 85 % 0 mm
09:19 19 °C 16.4 °C 1013.8 hPa South 7.1 km/h 11.1 km/h 85 % 0 mm
09:24 19.2 °C 16.4 °C 1013.8 hPa South 6.4 km/h 13 km/h 84 % 0 mm
09:29 19.3 °C 16.6 °C 1013.4 hPa South 9.2 km/h 13 km/h 84 % 0 mm
09:34 19.4 °C 16.5 °C 1013.4 hPa South 10.9 km/h 12.9 km/h 83 % 0 mm
09:39 19.6 °C 16.7 °C 1013.4 hPa North 8.7 km/h 13 km/h 83 % 0 mm
09:44 19.8 °C 16.8 °C 1013.8 hPa North 7.9 km/h 9.3 km/h 83 % 0 mm
09:50 19.9 °C 16.8 °C 1013.4 hPa SSE 5.8 km/h 18.5 km/h 82 % 0 mm
09:55 20.2 °C 16.8 °C 1013.4 hPa SSE 9 km/h 11.3 km/h 81 % 0 mm
10:00 20.3 °C 16.9 °C 1013.4 hPa SSE 4.3 km/h 14.8 km/h 81 % 0 mm
10:05 20.4 °C 16.8 °C 1013.8 hPa South 7.9 km/h 9.3 km/h 80 % 0 mm
10:10 20.7 °C 17.1 °C 1013.8 hPa South 6.1 km/h 9.3 km/h 80 % 0 mm
10:15 21 °C 17 °C 1013.8 hPa SSE 10.1 km/h 13 km/h 78 % 0 mm
10:20 21.2 °C 16.8 °C 1013.8 hPa SSE 6.4 km/h 9.3 km/h 76 % 0 mm
10:25 21.2 °C 17 °C 1013.8 hPa North 2.3 km/h 6.4 km/h 77 % 0 mm
10:30 21.4 °C 17 °C 1013.8 hPa SSE 4.7 km/h 6.4 km/h 76 % 0 mm
10:35 21.5 °C 16.9 °C 1013.4 hPa SSE 2.1 km/h 6.4 km/h 75 % 0 mm
10:40 21.6 °C 16.8 °C 1013.8 hPa SSE 7.6 km/h 11.1 km/h 74 % 0 mm
10:45 21.7 °C 16.8 °C 1013.8 hPa South 9.2 km/h 11.1 km/h 74 % 0 mm
10:50 21.7 °C 16.9 °C 1013.8 hPa SSE 2.6 km/h 8 km/h 74 % 0 mm
10:55 21.8 °C 16.7 °C 1013.4 hPa SSE 9.3 km/h 11.1 km/h 73 % 0 mm
11:00 21.8 °C 16.7 °C 1013.4 hPa South 5.3 km/h 8 km/h 73 % 0 mm
11:05 21.8 °C 16.8 °C 1013.4 hPa South 5 km/h 9.7 km/h 73 % 0 mm
11:10 21.9 °C 16.9 °C 1013.4 hPa South 9.3 km/h 11.1 km/h 73 % 0 mm
11:15 22 °C 16.7 °C 1013.4 hPa South 4.8 km/h 9.7 km/h 72 % 0 mm
11:20 22.1 °C 16.8 °C 1013.4 hPa North 10 km/h 13 km/h 72 % 0 mm
11:25 22.2 °C 16.9 °C 1013.4 hPa South 8.2 km/h 13 km/h 72 % 0 mm
11:30 22.2 °C 16.9 °C 1013.1 hPa South 6.3 km/h 9.7 km/h 72 % 0 mm
11:35 22.3 °C 16.8 °C 1013.1 hPa South 10.3 km/h 14.8 km/h 71 % 0 mm
11:40 22.3 °C 16.8 °C 1013.4 hPa SSW 11.6 km/h 16.7 km/h 71 % 0 mm
11:45 22.4 °C 16.9 °C 1013.4 hPa SSW 9.2 km/h 13 km/h 71 % 0 mm
11:50 22.4 °C 16.9 °C 1013.1 hPa South 5.8 km/h 9.3 km/h 71 % 0 mm
11:55 22.5 °C 16.8 °C 1012.8 hPa SSE 7.1 km/h 12.9 km/h 70 % 0 mm
12:00 22.8 °C 16.6 °C 1012.8 hPa South 8.4 km/h 16.7 km/h 68 % 0 mm
12:05 23.1 °C 16.9 °C 1013.1 hPa SSE 8.2 km/h 13 km/h 68 % 0 mm
12:10 23.5 °C 16.8 °C 1012.8 hPa SSE 11.1 km/h 14.8 km/h 66 % 0 mm
12:15 23.8 °C 16.6 °C 1012.8 hPa South 6.4 km/h 11.1 km/h 64 % 0 mm
12:20 24.3 °C 16.8 °C 1012.8 hPa SSE 9.2 km/h 13 km/h 63 % 0 mm
12:25 24.9 °C 16.6 °C 1012.8 hPa SE 10.3 km/h 14.8 km/h 60 % 0 mm
12:30 25.6 °C 16.9 °C 1012.8 hPa SE 10.6 km/h 13 km/h 59 % 0 mm
12:35 25.7 °C 16.2 °C 1012.4 hPa SSE 8.7 km/h 16.7 km/h 56 % 0 mm
12:40 25.9 °C 16.4 °C 1012.4 hPa SSE 5 km/h 11.3 km/h 56 % 0 mm
12:45 26.3 °C 15.6 °C 1012.1 hPa SE 7.2 km/h 11.1 km/h 52 % 0 mm
12:50 26.4 °C 15.7 °C 1012.1 hPa SE 4.3 km/h 9.3 km/h 52 % 0 mm
12:55 26.7 °C 15.7 °C 1012.1 hPa SE 5.8 km/h 8 km/h 51 % 0 mm
13:00 26.7 °C 15.1 °C 1012.1 hPa SE 10.6 km/h 13 km/h 49 % 0 mm
13:05 26.8 °C 15.2 °C 1012.1 hPa SSE 7.7 km/h 11.1 km/h 49 % 0 mm
13:10 27 °C 15.7 °C 1012.1 hPa SSE 3.2 km/h 7.4 km/h 50 % 0 mm
13:15 27.7 °C 15.3 °C 1011.7 hPa SSE 3.7 km/h 11.3 km/h 47 % 0 mm
13:20 28.4 °C 15.7 °C 1011.7 hPa SSE 8 km/h 13 km/h 46 % 0 mm
13:25 28.4 °C 15 °C 1011.7 hPa South 6.6 km/h 14.8 km/h 44 % 0 mm
13:30 28.7 °C 14.6 °C 1011.7 hPa South 7.1 km/h 16.1 km/h 42 % 0 mm
13:35 28.6 °C 14.4 °C 1011.7 hPa South 9.5 km/h 14.8 km/h 42 % 0 mm
13:40 28.9 °C 14.7 °C 1011.7 hPa SSW 9.5 km/h 20.4 km/h 42 % 0 mm
13:45 29.2 °C 14.6 °C 1011.4 hPa SSW 8.7 km/h 14.8 km/h 41 % 0 mm
13:50 29.3 °C 13.9 °C 1011.4 hPa SSW 8.2 km/h 14.8 km/h 39 % 0 mm
13:55 29.9 °C 14.4 °C 1011.4 hPa South 11.7 km/h 18.5 km/h 39 % 0 mm
14:00 29.9 °C 13.2 °C 1011.4 hPa South 20.6 km/h 27.8 km/h 36 % 0 mm
14:05 29.6 °C 13.3 °C 1011.4 hPa SW 16.9 km/h 18.5 km/h 37 % 0 mm
14:10 29.6 °C 13.3 °C 1011.1 hPa SW 10.5 km/h 16.7 km/h 37 % 0 mm
14:15 29.6 °C 13.8 °C 1011.1 hPa West 14.2 km/h 16.7 km/h 38 % 0 mm
14:20 29.8 °C 14 °C 1011.1 hPa SSW 14.6 km/h 22.5 km/h 38 % 0 mm
14:25 30.1 °C 13.8 °C 1011.1 hPa South 8.5 km/h 16.7 km/h 37 % 0 mm
14:30 30.4 °C 13.7 °C 1011.1 hPa SW 15.3 km/h 24.1 km/h 36 % 0 mm
14:35 30.6 °C 12.9 °C 1010.7 hPa SSW 16.1 km/h 24.1 km/h 34 % 0 mm
14:40 30.6 °C 12.9 °C 1010.7 hPa SSW 9 km/h 14.8 km/h 34 % 0 mm
14:45 30.9 °C 13.2 °C 1010.7 hPa SSW 12.9 km/h 24.1 km/h 34 % 0 mm
14:50 30.9 °C 13.2 °C 1010.7 hPa SSW 16.6 km/h 25.9 km/h 34 % 0 mm
14:55 30.6 °C 12.9 °C 1010.7 hPa SSW 20 km/h 27.8 km/h 34 % 0 mm
15:00 30.4 °C 12.8 °C 1010.7 hPa SW 14.8 km/h 18.5 km/h 34 % 0 mm
15:05 30.9 °C 13.3 °C 1010.7 hPa South 11.1 km/h 25.9 km/h 34 % 0 mm
15:10 30.9 °C 13.2 °C 1010.4 hPa SW 11.1 km/h 17.7 km/h 34 % 0 mm
15:15 30.9 °C 13.3 °C 1010.4 hPa SSW 13.4 km/h 18.5 km/h 34 % 0 mm
15:20 31.2 °C 13.4 °C 1010.4 hPa SW 15.8 km/h 22.2 km/h 34 % 0 mm
15:25 30.7 °C 13.5 °C 1010.4 hPa SW 14.2 km/h 20.4 km/h 35 % 0 mm
15:30 31.1 °C 13.8 °C 1010.4 hPa SW 15.4 km/h 22.2 km/h 35 % 0 mm
15:35 31 °C 13.7 °C 1010.4 hPa SSW 17.7 km/h 20.4 km/h 35 % 0 mm
15:40 30.8 °C 14 °C 1010 hPa SSW 16.4 km/h 22.2 km/h 36 % 0 mm
15:45 30.9 °C 13.7 °C 1010 hPa SSW 13.5 km/h 18.5 km/h 35 % 0 mm
15:50 30.9 °C 13.7 °C 1010 hPa SSE 12.7 km/h 22.2 km/h 35 % 0 mm
15:55 30.8 °C 13.6 °C 1010 hPa SSW 11.1 km/h 16.7 km/h 35 % 0 mm
16:00 31 °C 13.7 °C 1010 hPa South 11.6 km/h 13 km/h 35 % 0 mm
16:05 31.1 °C 13.8 °C 1010 hPa SSW 9.3 km/h 18.5 km/h 35 % 0 mm
16:10 31.2 °C 13.4 °C 1010 hPa SSW 15.9 km/h 25.9 km/h 34 % 0 mm
16:15 31.2 °C 13.5 °C 1010 hPa SSW 20.1 km/h 29.6 km/h 34 % 0 mm
16:20 31.1 °C 13.4 °C 1009.7 hPa WSW 12.2 km/h 13 km/h 34 % 0 mm
16:25 31.5 °C 13.7 °C 1009.7 hPa SSW 8.7 km/h 16.7 km/h 34 % 0 mm
16:30 31.7 °C 13.4 °C 1009.7 hPa South 12.4 km/h 22.2 km/h 33 % 0 mm
16:35 31.6 °C 13.8 °C 1009.7 hPa SSE 9.8 km/h 16.7 km/h 34 % 0 mm
16:40 31.6 °C 13.4 °C 1009.7 hPa South 6.1 km/h 6.4 km/h 33 % 0 mm
16:45 31.7 °C 13 °C 1009.7 hPa SSE 10.8 km/h 14.8 km/h 32 % 0 mm
16:50 31.8 °C 13.5 °C 1009.7 hPa SSW 17.9 km/h 22.2 km/h 33 % 0 mm
16:55 31.6 °C 12.8 °C 1009.7 hPa South 15.8 km/h 22.2 km/h 32 % 0 mm
17:00 31.6 °C 13.3 °C 1009.7 hPa SSW 13.5 km/h 20.9 km/h 33 % 0 mm
17:05 31.6 °C 13.4 °C 1009.7 hPa South 14.8 km/h 22.5 km/h 33 % 0 mm
17:10 31.4 °C 13.2 °C 1009.4 hPa WSW 11.4 km/h 13 km/h 33 % 0 mm
17:15 31.6 °C 13.4 °C 1009.4 hPa South 6.3 km/h 9.3 km/h 33 % 0 mm
17:20 32 °C 13.2 °C 1009.4 hPa SSW 12.4 km/h 16.7 km/h 32 % 0 mm
17:25 32.1 °C 13.3 °C 1009.4 hPa SSW 11.6 km/h 18.5 km/h 32 % 0 mm
17:30 31.9 °C 13.2 °C 1009.4 hPa SSW 13.5 km/h 14.8 km/h 32 % 0 mm
17:35 32 °C 13.2 °C 1009.4 hPa SSW 7.6 km/h 18.5 km/h 32 % 0 mm
17:40 31.8 °C 13.1 °C 1009.4 hPa WSW 10.3 km/h 14.5 km/h 32 % 0 mm
17:45 31.7 °C 13.4 °C 1009.4 hPa SW 8.9 km/h 11.3 km/h 33 % 0 mm
17:50 32 °C 13.2 °C 1009.4 hPa South 9.5 km/h 11.1 km/h 32 % 0 mm
17:55 31.9 °C 13.2 °C 1009.4 hPa SSW 7.4 km/h 16.7 km/h 32 % 0 mm
18:00 32 °C 13.2 °C 1009.4 hPa SSW 5.3 km/h 11.1 km/h 32 % 0 mm
18:05 32.2 °C 13.4 °C 1009.4 hPa South 9.5 km/h 20.4 km/h 32 % 0 mm
18:08 32 °C 13.2 °C 1009.4 hPa South 8.7 km/h 14.8 km/h 32 % 0 mm
18:11 31.9 °C 13.6 °C 1009.4 hPa South 1.1 km/h 5.6 km/h 33 % 0 mm
18:16 31.8 °C 13.5 °C 1009.4 hPa SSW 6.8 km/h 11.1 km/h 33 % 0 mm
18:21 31.9 °C 13.2 °C 1009 hPa South 4.3 km/h 6.4 km/h 32 % 0 mm
18:26 32.1 °C 13.3 °C 1009 hPa SSE 14.8 km/h 18.5 km/h 32 % 0 mm
18:31 32.1 °C 13.3 °C 1009 hPa SSE 12.2 km/h 20.4 km/h 32 % 0 mm
18:36 31.9 °C 13.2 °C 1009 hPa South 9.3 km/h 13 km/h 32 % 0 mm
18:41 31.9 °C 13.7 °C 1009 hPa SSW 8.4 km/h 11.3 km/h 33 % 0 mm
18:46 31.8 °C 13.5 °C 1009 hPa SSW 9.2 km/h 13 km/h 33 % 0 mm
18:51 31.9 °C 13.6 °C 1009 hPa SSW 8 km/h 11.1 km/h 33 % 0 mm
18:56 31.9 °C 13.6 °C 1009 hPa South 5.3 km/h 11.1 km/h 33 % 0 mm
19:01 32 °C 13.7 °C 1009 hPa SE 5.8 km/h 7.4 km/h 33 % 0 mm
19:06 32 °C 13.7 °C 1009 hPa SE 5.8 km/h 8 km/h 33 % 0 mm
19:11 31.9 °C 13.6 °C 1009 hPa SE 8.9 km/h 11.3 km/h 33 % 0 mm
19:16 31.7 °C 13.4 °C 1009 hPa SE 6.3 km/h 7.4 km/h 33 % 0 mm
19:21 31.6 °C 13.4 °C 1009 hPa SSE 7.4 km/h 11.3 km/h 33 % 0 mm
19:22 31.6 °C 13.3 °C 1009 hPa SSE 8.9 km/h 11.1 km/h 33 % 0 mm
19:27 31.5 °C 13.3 °C 1009 hPa SSE 4.7 km/h 9.3 km/h 33 % 0 mm
19:32 31.5 °C 13.3 °C 1009 hPa SSE 0.8 km/h 3.7 km/h 33 % 0 mm
19:37 31.5 °C 12.8 °C 1009 hPa SSE 9.8 km/h 11.1 km/h 32 % 0 mm
19:42 31.3 °C 13.1 °C 1009 hPa South 8.7 km/h 13 km/h 33 % 0 mm
19:47 31.2 °C 13 °C 1009 hPa South 7.9 km/h 9.7 km/h 33 % 0 mm
19:52 31.1 °C 13.3 °C 1009 hPa South 4 km/h 7.4 km/h 34 % 0 mm
19:57 30.9 °C 13.2 °C 1009 hPa South 2.7 km/h 7.4 km/h 34 % 0 mm
20:02 30.8 °C 13.1 °C 1009 hPa South 3.4 km/h 7.4 km/h 34 % 0 mm
20:07 30.6 °C 13.3 °C 1009 hPa South 7.1 km/h 9.3 km/h 35 % 0 mm
20:12 30.4 °C 13.2 °C 1009 hPa South 5.1 km/h 7.4 km/h 35 % 0 mm
20:17 30.2 °C 13.5 °C 1009 hPa South 3.5 km/h 7.4 km/h 36 % 0 mm
20:22 29.9 °C 13.6 °C 1009 hPa South 4.5 km/h 7.4 km/h 37 % 0 mm
20:27 29.5 °C 13.3 °C 1009.4 hPa South 2.4 km/h 5.6 km/h 37 % 0 mm
20:32 29.2 °C 13.4 °C 1009.4 hPa South 1.1 km/h 3.7 km/h 38 % 0 mm
20:37 28.9 °C 13.6 °C 1009.4 hPa South 5.5 km/h 7.4 km/h 39 % 0 mm
20:42 28.7 °C 13.7 °C 1009.4 hPa South 1 km/h 1.9 km/h 40 % 0 mm
20:47 28.4 °C 13.5 °C 1009.4 hPa South 3.4 km/h 5.6 km/h 40 % 0 mm
20:52 28.1 °C 13.6 °C 1009.4 hPa South 7.1 km/h 13 km/h 41 % 0 mm
20:57 27.8 °C 13.7 °C 1009.4 hPa South 4.2 km/h 6.4 km/h 42 % 0 mm
21:02 27.4 °C 14.1 °C 1009.4 hPa South 4.5 km/h 9.3 km/h 44 % 0 mm
21:07 27.2 °C 14.2 °C 1009.4 hPa South 6.8 km/h 9.3 km/h 45 % 0 mm
21:12 26.9 °C 14.3 °C 1009.4 hPa South 6.9 km/h 11.1 km/h 46 % 0 mm
21:17 26.8 °C 14.5 °C 1009.4 hPa South 3.7 km/h 8 km/h 47 % 0 mm
21:22 26.6 °C 14.7 °C 1009.4 hPa South 0.2 km/h 1.9 km/h 48 % 0 mm
21:27 26.4 °C 14.8 °C 1009.4 hPa South 2.3 km/h 7.4 km/h 49 % 0 mm
21:32 26.2 °C 14.7 °C 1009.4 hPa South 2.9 km/h 7.4 km/h 49 % 0 mm
21:37 26.1 °C 14.8 °C 1009.4 hPa South 4.7 km/h 8 km/h 50 % 0 mm
21:42 25.9 °C 14.7 °C 1009.4 hPa South 1.4 km/h 3.7 km/h 50 % 0 mm
21:47 25.7 °C 14.8 °C 1009.4 hPa South 6.4 km/h 7.4 km/h 51 % 0 mm
21:52 25.6 °C 14.9 °C 1009.7 hPa South 2.1 km/h 5.6 km/h 52 % 0 mm
21:57 25.5 °C 14.9 °C 1009.7 hPa South 6.6 km/h 11.1 km/h 52 % 0 mm
22:02 25.4 °C 15.2 °C 1009.7 hPa SSE 7.2 km/h 14.8 km/h 53 % 0 mm
22:07 25.3 °C 15.1 °C 1009.7 hPa SSE 6.4 km/h 11.1 km/h 53 % 0 mm
22:12 25.2 °C 15.2 °C 1009.7 hPa SSE 3.7 km/h 11.1 km/h 54 % 0 mm
22:17 25.1 °C 15.1 °C 1009.4 hPa SSE 1.1 km/h 3.7 km/h 54 % 0 mm
22:22 24.9 °C 15.3 °C 1009.4 hPa Calm   1.9 km/h 55 % 0 mm
22:27 24.8 °C 15.4 °C 1009.4 hPa SSE 1.4 km/h 3.2 km/h 56 % 0 mm
22:32 24.7 °C 15.3 °C 1009.4 hPa SSE 4.8 km/h 7.4 km/h 56 % 0 mm
22:37 24.6 °C 15.2 °C 1009.4 hPa SSE 2.1 km/h 5.6 km/h 56 % 0 mm
22:42 24.4 °C 15.4 °C 1009.4 hPa SSE 3.2 km/h 5.6 km/h 57 % 0 mm
22:47 24.3 °C 15.6 °C 1009.4 hPa SSE 4.2 km/h 6.4 km/h 58 % 0 mm
22:52 24.2 °C 15.4 °C 1009.4 hPa SSE 1.9 km/h 5.6 km/h 58 % 0 mm
22:57 24 °C 15.5 °C 1009.4 hPa SSE 0.6 km/h 3.7 km/h 59 % 0 mm
23:02 23.9 °C 15.4 °C 1009 hPa SSE 2.3 km/h 3.7 km/h 59 % 0 mm
23:07 23.7 °C 15.5 °C 1009 hPa SSE 1.6 km/h 3.7 km/h 60 % 0 mm
23:12 23.5 °C 15.6 °C 1009 hPa SSE 2.3 km/h 3.7 km/h 61 % 0 mm
23:17 23.4 °C 15.5 °C 1009 hPa SSE 3.4 km/h 5.6 km/h 61 % 0 mm
23:22 23.4 °C 15.4 °C 1009 hPa SSE 0.8 km/h 3.7 km/h 61 % 0 mm
23:27 23.2 °C 15.5 °C 1008.7 hPa SSE 2.7 km/h 6.4 km/h 62 % 0 mm
23:32 23 °C 15.6 °C 1008.7 hPa SSE 1.8 km/h 3.7 km/h 63 % 0 mm
23:37 22.9 °C 15.5 °C 1008.7 hPa SSE 5.1 km/h 5.6 km/h 63 % 0 mm
23:42 22.9 °C 15.4 °C 1008.4 hPa SSE 2.9 km/h 5.6 km/h 63 % 0 mm
23:47 22.8 °C 15.4 °C 1008.4 hPa SSE 3.4 km/h 5.6 km/h 63 % 0 mm
23:52 22.7 °C 15.5 °C 1008.4 hPa Calm   1.9 km/h 64 % 0 mm
23:57 22.6 °C 15.4 °C 1008.4 hPa Calm     64 % 0 mm
Ararat Weather
Compliments of Weather Underground - 2 mb
Click here to send mail.


ABOUT

Live weather data from Ararat, Victoria, Australia, 3377
Data uploaded from Cumulus every 5 minutes to Weather Underground.
This site then downloads the raw data for formatting and display.
Metric and imperial data can be displayed. Graphs and historical data available.
Includes Sun and Moon times and rain image live from BOM.

Check out Ararat Weather on Facebook, Twitter and Google +

Help support ongoing costs by checking out the ads





Follow @AraratWeather